Time;durP1;ratioP1;P1;durP2;ratioP2;P2;SDS_P1;SDS_P2;PMS_P1;PMS_P2;Temp;Humidity;BMP_temperature;BMP_pressure;BME280_temperature;BME280_humidity;BME280_pressure;Samples;Min_cycle;Max_cycle;Signal;HPM_P1;HPM_P2
2023/10/11 00:00:39;;;;;;;30.93;14.70;;;;;;;8.03;86.65;100449.41;4190541;28;20248;-69
2023/10/11 00:03:18;;;;;;;33.33;14.90;;;;;;;8.08;86.56;100441.78;4190368;28;20584;-66
2023/10/11 00:05:46;;;;;;;33.10;14.97;;;;;;;8.13;86.33;100435.16;4195023;28;24734;-68
2023/10/11 00:08:18;;;;;;;32.83;15.57;;;;;;;8.15;86.36;100438.56;4192521;28;20236;-68
2023/10/11 00:10:55;;;;;;;33.00;14.63;;;;;;;8.08;86.91;100427.44;4197555;28;23100;-66
2023/10/11 00:13:23;;;;;;;33.10;14.93;;;;;;;8.12;86.89;100425.34;4196885;28;20238;-66
2023/10/11 00:15:52;;;;;;;38.03;15.57;;;;;;;7.96;86.91;100429.34;4196063;28;20232;-67
2023/10/11 00:18:26;;;;;;;29.77;14.77;;;;;;;7.92;86.87;100427.91;4197120;28;20232;-67
2023/10/11 00:20:57;;;;;;;31.37;15.00;;;;;;;7.79;87.34;100428.09;4190487;28;21799;-68
2023/10/11 00:23:25;;;;;;;38.80;15.43;;;;;;;7.80;87.33;100427.13;4198093;28;20477;-68
2023/10/11 00:26:00;;;;;;;30.67;15.63;;;;;;;7.64;88.13;100426.69;4202468;28;20228;-69
2023/10/11 00:28:32;;;;;;;32.07;14.93;;;;;;;7.64;88.30;100418.59;4193920;28;22944;-67
2023/10/11 00:31:00;;;;;;;32.50;15.27;;;;;;;7.65;88.35;100423.03;4188174;28;21862;-67
2023/10/11 00:33:30;;;;;;;31.97;14.93;;;;;;;7.76;87.77;100422.94;4192829;28;20236;-66
2023/10/11 00:36:06;;;;;;;30.73;15.40;;;;;;;7.71;87.89;100414.41;4192478;28;20266;-66
2023/10/11 00:38:42;;;;;;;31.63;15.43;;;;;;;7.70;88.44;100423.47;4195961;28;20232;-68
2023/10/11 00:41:15;;;;;;;31.43;15.00;;;;;;;7.72;88.55;100413.44;4187323;28;21071;-68
2023/10/11 00:43:49;;;;;;;29.77;15.27;;;;;;;7.85;88.10;100407.88;4187910;28;20247;-66
2023/10/11 00:46:19;;;;;;;32.57;15.20;;;;;;;7.80;88.57;100413.66;4198690;28;20239;-66
2023/10/11 00:51:33;;;;;;;36.50;15.87;;;;;;;7.83;88.93;100409.81;4192303;28;20235;-68
2023/10/11 00:54:01;;;;;;;37.30;15.43;;;;;;;7.89;88.44;100401.22;4196204;28;20232;-66
2023/10/11 00:56:32;;;;;;;33.27;15.20;;;;;;;7.92;88.46;100414.44;4199027;28;21750;-67
2023/10/11 00:59:02;;;;;;;36.80;16.77;;;;;;;7.86;88.92;100402.34;4200919;28;20895;-66
2023/10/11 01:01:33;;;;;;;30.93;16.03;;;;;;;7.80;90.47;100405.56;4189597;28;20237;-65
2023/10/11 01:04:00;;;;;;;34.93;16.67;;;;;;;8.01;89.96;100402.84;4196020;28;20343;-66
2023/10/11 01:06:28;;;;;;;35.37;17.27;;;;;;;7.87;90.01;100395.97;4197975;28;20248;-71
2023/10/11 01:08:55;;;;;;;37.60;16.87;;;;;;;7.88;90.89;100391.41;4185281;28;20304;-72
2023/10/11 01:11:22;;;;;;;36.03;16.60;;;;;;;7.99;90.79;100387.78;4198318;28;20263;-71
2023/10/11 01:13:52;;;;;;;33.57;16.07;;;;;;;7.95;90.72;100378.28;4204062;28;20304;-69
2023/10/11 01:16:26;;;;;;;40.53;17.17;;;;;;;8.05;90.21;100382.75;4208294;28;22140;-70
2023/10/11 01:18:53;;;;;;;39.67;18.43;;;;;;;8.02;92.38;100377.59;4194436;28;21229;-71
2023/10/11 01:21:20;;;;;;;35.67;17.10;;;;;;;8.11;91.67;100385.88;4201485;28;21676;-71
2023/10/11 01:23:48;;;;;;;39.07;17.20;;;;;;;8.12;91.51;100371.41;4201979;28;22773;-72
2023/10/11 01:26:15;;;;;;;39.10;17.67;;;;;;;8.14;92.00;100370.28;4196046;28;20232;-71
2023/10/11 01:28:47;;;;;;;38.03;18.03;;;;;;;8.17;91.73;100364.66;4193145;28;20241;-72
2023/10/11 01:31:16;;;;;;;42.53;18.13;;;;;;;8.07;92.88;100358.34;4195883;28;20289;-71
2023/10/11 01:33:48;;;;;;;42.00;18.03;;;;;;;8.11;92.75;100362.50;4201749;28;20377;-71
2023/10/11 01:36:21;;;;;;;42.90;18.10;;;;;;;8.27;91.83;100366.56;4199192;28;21136;-71
2023/10/11 01:38:48;;;;;;;39.43;17.90;;;;;;;8.28;91.79;100365.53;4199891;28;20240;-72
2023/10/11 01:41:22;;;;;;;46.07;19.20;;;;;;;8.32;92.63;100364.28;4198863;28;20294;-71
2023/10/11 01:43:50;;;;;;;41.63;19.27;;;;;;;8.22;92.60;100354.31;4197898;28;20533;-69
2023/10/11 01:46:24;;;;;;;44.10;19.83;;;;;;;8.27;92.67;100363.84;4198170;28;20233;-71
2023/10/11 01:48:55;;;;;;;38.67;18.20;;;;;;;8.18;93.31;100354.69;4192746;28;21093;-71
2023/10/11 01:51:26;;;;;;;44.47;18.87;;;;;;;8.15;93.78;100355.84;4203849;28;22772;-71
2023/10/11 01:53:55;;;;;;;37.00;18.63;;;;;;;8.26;92.93;100349.50;4196776;28;20240;-71
2023/10/11 01:56:23;;;;;;;41.37;19.87;;;;;;;8.28;92.99;100349.34;4188683;28;20256;-70
2023/10/11 01:58:51;;;;;;;37.30;17.70;;;;;;;8.21;93.25;100351.75;4196677;28;20255;-70
2023/10/11 02:01:22;;;;;;;51.17;19.83;;;;;;;8.04;94.39;100354.06;4198971;28;20592;-70
2023/10/11 02:03:59;;;;;;;45.23;20.63;;;;;;;8.18;94.03;100342.09;4213925;28;20629;-69
2023/10/11 02:06:31;;;;;;;40.43;18.03;;;;;;;8.14;94.36;100345.19;4197261;28;20239;-72
2023/10/11 02:09:00;;;;;;;38.97;18.10;;;;;;;8.28;94.31;100341.25;4195729;28;20232;-70
2023/10/11 02:11:29;;;;;;;42.00;18.30;;;;;;;8.18;94.56;100341.22;4200749;28;22755;-72
2023/10/11 02:13:57;;;;;;;43.60;19.20;;;;;;;8.10;95.02;100344.59;4196306;28;20633;-71
2023/10/11 02:16:25;;;;;;;43.43;19.23;;;;;;;8.29;94.20;100329.50;4196576;28;20272;-70
2023/10/11 02:18:58;;;;;;;42.37;18.37;;;;;;;8.28;94.49;100333.16;4197057;28;23407;-70
2023/10/11 02:21:31;;;;;;;39.87;17.97;;;;;;;8.33;94.85;100325.56;4208750;28;21800;-70
2023/10/11 02:23:59;;;;;;;45.17;19.93;;;;;;;8.17;95.33;100326.91;4198593;28;20357;-71
2023/10/11 02:26:34;;;;;;;42.00;19.90;;;;;;;8.23;95.83;100314.72;4193580;28;20233;-71
2023/10/11 02:29:06;;;;;;;48.40;21.70;;;;;;;8.28;95.92;100320.56;4191818;28;23113;-71
2023/10/11 02:31:33;;;;;;;43.63;19.43;;;;;;;8.27;96.54;100318.84;4196787;28;20236;-71
2023/10/11 02:34:12;;;;;;;41.00;19.17;;;;;;;8.30;96.54;100325.81;4201808;28;20241;-71
2023/10/11 02:36:44;;;;;;;47.10;20.80;;;;;;;8.36;96.27;100323.44;4205991;28;21655;-71
2023/10/11 02:39:17;;;;;;;47.50;20.27;;;;;;;8.38;95.98;100318.72;4206334;28;20237;-72
2023/10/11 02:41:57;;;;;;;46.07;20.50;;;;;;;8.37;96.17;100316.19;4194410;28;20340;-71
2023/10/11 02:44:25;;;;;;;44.67;20.07;;;;;;;8.42;95.79;100305.84;4197069;28;21806;-70
2023/10/11 02:46:52;;;;;;;40.93;19.83;;;;;;;8.17;97.00;100299.94;4197276;28;20237;-70
2023/10/11 02:49:19;;;;;;;47.07;20.37;;;;;;;8.20;97.70;100305.03;4195297;28;20244;-71
2023/10/11 02:51:53;;;;;;;43.17;19.87;;;;;;;8.27;97.75;100304.53;4204220;28;20304;-70
2023/10/11 02:54:20;;;;;;;47.40;20.17;;;;;;;8.37;97.30;100295.47;4207079;28;20307;-72
2023/10/11 02:56:47;;;;;;;44.10;20.50;;;;;;;8.45;96.98;100299.34;4206284;28;20236;-72
2023/10/11 02:59:24;;;;;;;46.03;20.60;;;;;;;8.44;96.80;100294.91;4187917;28;22857;-71
2023/10/11 03:02:01;;;;;;;45.40;20.67;;;;;;;8.46;96.76;100293.78;4197510;28;22404;-70
2023/10/11 03:04:32;;;;;;;47.50;20.53;;;;;;;8.42;97.24;100286.97;4185406;28;20238;-69
2023/10/11 03:07:00;;;;;;;47.70;20.67;;;;;;;8.49;97.07;100296.25;4193267;28;20965;-70
2023/10/11 03:09:29;;;;;;;40.63;19.33;;;;;;;8.35;97.92;100286.66;4203735;28;20667;-69
2023/10/11 03:11:57;;;;;;;41.93;20.17;;;;;;;8.40;97.76;100294.34;4197119;28;20361;-70
2023/10/11 03:14:24;;;;;;;45.73;21.90;;;;;;;8.49;97.68;100298.97;4191839;28;20436;-70
2023/10/11 03:16:56;;;;;;;47.13;21.47;;;;;;;8.61;97.36;100290.72;4193843;28;21005;-71
2023/10/11 03:19:24;;;;;;;43.23;21.20;;;;;;;8.54;97.46;100287.72;4196499;28;20714;-70
2023/10/11 03:21:54;;;;;;;44.27;20.23;;;;;;;8.55;97.31;100279.50;4204340;28;21796;-70
2023/10/11 03:24:21;;;;;;;46.57;20.80;;;;;;;8.55;97.83;100281.34;4195583;28;20379;-71
2023/10/11 03:26:48;;;;;;;43.83;20.50;;;;;;;8.52;98.37;100274.38;4205278;28;20812;-73
2023/10/11 03:29:18;;;;;;;47.27;21.20;;;;;;;8.50;98.77;100281.75;4191145;28;21770;-71
2023/10/11 03:31:45;;;;;;;47.00;20.63;;;;;;;8.58;98.02;100270.28;4206242;28;20237;-71
2023/10/11 03:34:12;;;;;;;43.63;21.23;;;;;;;8.65;97.89;100276.81;4188087;28;21543;-71
2023/10/11 03:36:52;;;;;;;46.00;20.33;;;;;;;8.55;98.49;100270.53;4197254;28;20278;-71
2023/10/11 03:44:45;;;;;;;43.57;21.13;;;;;;;8.63;99.04;100253.69;4190157;28;20236;-71
2023/10/11 03:47:15;;;;;;;44.97;21.23;;;;;;;8.63;99.52;100265.31;4194938;28;20276;-71
2023/10/11 03:52:30;;;;;;;41.70;20.57;;;;;;;8.73;99.46;100254.53;4187974;28;20233;-74
2023/10/11 03:55:10;;;;;;;52.47;23.03;;;;;;;8.78;98.30;100256.81;4202573;28;20409;-71
2023/10/11 03:57:41;;;;;;;50.10;21.90;;;;;;;8.69;99.08;100258.50;4195921;28;20236;-70
2023/10/11 04:02:57;;;;;;;42.77;20.67;;;;;;;8.76;98.84;100246.16;4200119;28;20637;-71
2023/10/11 04:05:34;;;;;;;47.53;22.50;;;;;;;8.66;99.50;100245.28;4189215;28;20232;-71
2023/10/11 04:08:05;;;;;;;47.07;22.37;;;;;;;8.67;99.64;100233.50;4182870;28;20426;-72
2023/10/11 04:10:39;;;;;;;43.33;19.87;;;;;;;8.71;100.00;100238.47;4217146;28;20328;-71
2023/10/11 04:13:14;;;;;;;50.20;23.20;;;;;;;8.83;99.46;100231.13;4188162;28;20323;-71
2023/10/11 04:15:42;;;;;;;50.50;23.10;;;;;;;8.82;99.64;100229.41;4197647;28;20240;-73
2023/10/11 04:18:32;;;;;;;50.20;22.60;;;;;;;8.84;99.44;100224.72;4205893;28;20251;-71
2023/10/11 04:23:39;;;;;;;47.77;22.13;;;;;;;9.01;98.95;100235.81;4202943;28;20264;-71
2023/10/11 04:26:22;;;;;;;50.97;23.30;;;;;;;8.84;99.83;100237.34;4197456;28;21768;-72
2023/10/11 04:28:52;;;;;;;54.60;22.10;;;;;;;8.91;99.77;100216.94;4216816;28;20630;-72
2023/10/11 04:31:31;;;;;;;49.57;23.73;;;;;;;8.89;99.63;100224.31;4189300;28;21209;-71
2023/10/11 04:33:59;;;;;;;46.87;22.57;;;;;;;8.91;99.68;100214.22;4195606;28;20306;-71
2023/10/11 04:36:28;;;;;;;48.50;22.17;;;;;;;8.94;99.66;100211.22;4196657;28;21408;-75
2023/10/11 04:39:12;;;;;;;46.87;21.57;;;;;;;8.90;99.50;100204.41;4189751;28;21512;-72
2023/10/11 04:41:49;;;;;;;47.80;22.53;;;;;;;8.91;99.15;100192.63;4211487;28;21656;-72
2023/10/11 04:44:17;;;;;;;49.40;23.07;;;;;;;8.81;100.00;100214.19;4199008;28;20644;-73
2023/10/11 04:46:55;;;;;;;48.10;21.83;;;;;;;8.89;99.85;100205.41;4208947;28;20237;-70
2023/10/11 04:49:24;;;;;;;49.63;22.27;;;;;;;8.82;99.87;100198.88;4208622;28;20243;-72
2023/10/11 04:51:56;;;;;;;52.13;22.00;;;;;;;8.87;100.00;100202.81;4198257;28;26631;-73
2023/10/11 04:54:36;;;;;;;46.57;22.27;;;;;;;8.88;100.00;100201.00;4193922;28;20650;-72
2023/10/11 04:57:20;;;;;;;53.40;23.23;;;;;;;8.78;100.00;100201.00;4198722;28;20236;-72
2023/10/11 04:59:46;;;;;;;56.80;21.93;;;;;;;8.89;100.00;100200.00;4189565;28;20228;-74
2023/10/11 05:02:24;;;;;;;55.60;23.13;;;;;;;8.98;100.00;100203.69;4192982;28;22501;-73
2023/10/11 05:04:51;;;;;;;48.33;22.83;;;;;;;9.09;99.71;100203.56;4199608;28;20232;-72
2023/10/11 05:07:22;;;;;;;53.43;22.70;;;;;;;9.03;99.86;100196.00;4204860;28;20284;-70
2023/10/11 05:09:56;;;;;;;52.93;23.27;;;;;;;9.05;99.75;100199.41;4193562;28;20393;-71
2023/10/11 05:12:24;;;;;;;48.93;22.53;;;;;;;9.09;99.49;100198.16;4199234;28;23987;-71
2023/10/11 05:22:49;;;;;;;48.33;22.47;;;;;;;8.91;100.00;100180.97;4230611;28;20244;-74
2023/10/11 05:28:07;;;;;;;49.67;23.57;;;;;;;9.04;100.00;100193.19;4213662;28;20675;-76
2023/10/11 05:30:34;;;;;;;52.07;22.70;;;;;;;9.03;100.00;100191.47;4200621;28;20586;-74
2023/10/11 05:52:16;;;;;;;51.17;24.13;;;;;;;9.25;100.00;100177.81;4203320;28;22339;-74
2023/10/11 05:54:45;;;;;;;53.63;23.37;;;;;;;9.30;100.00;100162.84;4219275;28;20872;-71
2023/10/11 05:57:13;;;;;;;53.30;24.10;;;;;;;9.38;100.00;100163.97;4203803;28;20237;-71
2023/10/11 05:59:47;;;;;;;51.33;22.20;;;;;;;9.50;99.84;100166.34;4195083;28;20236;-74
2023/10/11 06:02:13;;;;;;;51.40;22.23;;;;;;;9.47;100.00;100161.25;4199900;28;20472;-73
2023/10/11 06:04:40;;;;;;;48.30;22.77;;;;;;;9.57;100.00;100165.75;4193071;28;20233;-75
2023/10/11 06:07:11;;;;;;;49.93;22.83;;;;;;;9.78;99.28;100169.06;4195585;28;20550;-72
2023/10/11 06:09:45;;;;;;;50.27;22.40;;;;;;;9.89;98.93;100173.47;4191898;28;21720;-73
2023/10/11 06:12:22;;;;;;;49.20;22.70;;;;;;;10.05;97.85;100167.41;4197957;28;21545;-72
2023/10/11 06:14:51;;;;;;;50.23;21.27;;;;;;;10.06;98.03;100162.81;4201434;28;21323;-76
2023/10/11 06:17:21;;;;;;;45.67;21.47;;;;;;;10.09;97.62;100157.13;4199857;28;21981;-73
2023/10/11 06:19:54;;;;;;;44.00;21.13;;;;;;;10.26;96.81;100168.97;4197342;28;20231;-71
2023/10/11 06:22:21;;;;;;;47.77;22.33;;;;;;;10.34;96.15;100158.25;4209195;28;25834;-72
2023/10/11 06:24:49;;;;;;;43.63;21.03;;;;;;;10.35;96.17;100159.97;4203062;28;20249;-73
2023/10/11 06:30:06;;;;;;;45.77;20.97;;;;;;;10.56;95.69;100158.84;4196317;28;20244;-71
2023/10/11 06:32:35;;;;;;;43.07;19.70;;;;;;;10.66;95.07;100156.03;4195293;28;20840;-70
2023/10/11 06:35:05;;;;;;;46.40;21.70;;;;;;;10.74;95.14;100151.56;4203607;28;22049;-71
2023/10/11 06:37:35;;;;;;;49.77;20.97;;;;;;;10.78;94.58;100144.00;4195490;28;20232;-67
2023/10/11 06:42:31;;;;;;;45.07;19.53;;;;;;;10.96;93.85;100151.22;4208549;28;20235;-68
2023/10/11 06:45:06;;;;;;;47.57;20.43;;;;;;;10.96;93.56;100152.09;4206533;28;20229;-70
2023/10/11 06:47:35;;;;;;;44.73;20.30;;;;;;;10.96;94.03;100143.97;4198783;28;20247;-72
2023/10/11 06:50:10;;;;;;;40.47;19.20;;;;;;;10.94;94.37;100143.25;4197146;28;20233;-71
2023/10/11 06:52:43;;;;;;;45.80;20.20;;;;;;;11.06;94.22;100141.16;4205633;28;20614;-72
2023/10/11 06:55:17;;;;;;;43.33;18.50;;;;;;;11.14;93.82;100119.53;4203346;28;20283;-69
2023/10/11 06:57:52;;;;;;;44.50;20.37;;;;;;;11.25;93.39;100127.38;4205601;28;20603;-71
2023/10/11 07:00:22;;;;;;;39.90;18.73;;;;;;;11.53;92.37;100134.50;4220224;28;21163;-71
2023/10/11 07:03:06;;;;;;;42.30;20.10;;;;;;;11.80;91.23;100132.63;4210030;28;20299;-69
2023/10/11 07:05:42;;;;;;;38.13;19.13;;;;;;;11.93;90.27;100127.56;4212110;28;21721;-70
2023/10/11 07:08:09;;;;;;;43.37;18.20;;;;;;;12.25;89.16;100125.16;4194448;28;20320;-72
2023/10/11 07:10:41;;;;;;;41.67;18.00;;;;;;;12.44;88.23;100124.84;4210681;28;20272;-70
2023/10/11 07:13:12;;;;;;;43.47;18.43;;;;;;;12.35;88.66;100128.56;4214467;28;20340;-71
2023/10/11 07:15:44;;;;;;;38.23;18.03;;;;;;;12.48;88.27;100125.38;4213795;28;20235;-75
2023/10/11 07:18:24;;;;;;;36.80;17.57;;;;;;;12.77;87.39;100124.03;4204342;28;20237;-69
2023/10/11 07:21:05;;;;;;;39.97;18.40;;;;;;;12.64;87.78;100125.41;4209697;28;25381;-70
2023/10/11 07:23:55;;;;;;;37.57;17.57;;;;;;;12.75;87.72;100112.47;4210263;28;21606;-72
2023/10/11 07:28:59;;;;;;;37.50;18.23;;;;;;;13.45;84.74;100103.75;4238268;28;26195;-69
2023/10/11 07:31:32;;;;;;;37.77;17.03;;;;;;;14.06;82.75;100105.88;4209861;28;20557;-72
2023/10/11 07:34:01;;;;;;;35.63;17.07;;;;;;;14.41;80.14;100102.78;4197400;28;20240;-69
2023/10/11 07:36:31;;;;;;;31.93;16.17;;;;;;;16.05;73.89;100102.16;4241147;28;20248;-72
2023/10/11 07:39:00;;;;;;;32.30;14.87;;;;;;;15.64;74.41;100108.97;4196213;28;25771;-70
2023/10/11 07:41:30;;;;;;;37.13;15.03;;;;;;;15.88;74.26;100104.28;4219854;28;20237;-69
2023/10/11 07:43:57;;;;;;;36.47;14.43;;;;;;;16.68;71.02;100092.56;4212725;28;20245;-69
2023/10/11 07:46:24;;;;;;;28.13;15.73;;;;;;;16.69;70.96;100102.44;4219186;28;22849;-69
2023/10/11 07:49:03;;;;;;;31.13;14.40;;;;;;;17.72;67.94;100091.00;4218081;28;21962;-72
2023/10/11 07:51:35;;;;;;;34.67;13.93;;;;;;;18.29;64.47;100088.91;4205934;28;20603;-70
2023/10/11 07:54:19;;;;;;;32.17;15.57;;;;;;;18.07;64.81;100070.94;4210934;28;21832;-73
2023/10/11 07:56:49;;;;;;;27.90;14.43;;;;;;;18.64;63.30;100066.00;4200857;28;20254;-72
2023/10/11 07:59:15;;;;;;;29.37;14.00;;;;;;;19.18;61.88;100068.75;4212193;28;20242;-71
2023/10/11 08:01:42;;;;;;;29.23;13.40;;;;;;;19.29;60.76;100057.13;4196923;28;20275;-72
2023/10/11 08:04:21;;;;;;;28.30;14.60;;;;;;;18.92;62.47;100064.97;4195631;28;20304;-71
2023/10/11 08:06:59;;;;;;;27.00;13.37;;;;;;;19.98;59.57;100053.97;4213517;28;20569;-71
2023/10/11 08:09:45;;;;;;;21.50;12.63;;;;;;;20.98;55.37;100063.44;4251352;28;20833;-73
2023/10/11 08:12:14;;;;;;;27.00;12.70;;;;;;;20.38;58.24;100056.47;4237948;28;20335;-74
2023/10/11 08:14:45;;;;;;;28.77;13.50;;;;;;;20.56;57.03;100058.44;4254616;28;21100;-75
2023/10/11 08:17:17;;;;;;;37.30;12.30;;;;;;;19.97;58.51;100055.84;4219775;28;22724;-74
2023/10/11 08:19:45;;;;;;;29.33;13.13;;;;;;;20.65;57.29;100048.03;4215615;28;20224;-72
2023/10/11 08:22:14;;;;;;;27.10;12.43;;;;;;;20.68;57.09;100042.06;4196309;28;20249;-74
2023/10/11 08:24:46;;;;;;;23.70;12.97;;;;;;;21.12;56.10;100051.22;4210633;28;21296;-75
2023/10/11 08:27:22;;;;;;;29.57;13.27;;;;;;;21.20;55.84;100034.44;4214350;28;20304;-72
2023/10/11 08:29:54;;;;;;;30.13;13.40;;;;;;;20.81;57.06;100030.16;4230111;28;20229;-71
2023/10/11 08:32:29;;;;;;;25.90;12.37;;;;;;;21.64;55.08;100037.16;4226921;28;21484;-71
2023/10/11 08:34:56;;;;;;;23.63;11.77;;;;;;;21.89;54.22;100027.09;4206037;28;20384;-75
2023/10/11 08:37:23;;;;;;;19.83;10.87;;;;;;;21.77;54.57;100027.88;4212589;28;20236;-75
2023/10/11 08:39:54;;;;;;;22.27;11.23;;;;;;;22.28;53.35;100020.16;4209536;28;20427;-70
2023/10/11 08:42:22;;;;;;;19.57;11.23;;;;;;;21.08;56.12;100010.63;4226607;28;21905;-73
2023/10/11 08:44:50;;;;;;;30.17;11.93;;;;;;;20.17;59.74;100008.19;4228957;28;20321;-71
2023/10/11 08:47:19;;;;;;;24.13;12.37;;;;;;;20.13;60.07;100007.78;4211219;28;20232;-71
2023/10/11 08:49:49;;;;;;;23.60;11.43;;;;;;;19.66;61.67;99999.75;4199985;28;20243;-72
2023/10/11 08:52:24;;;;;;;21.67;11.90;;;;;;;19.55;62.51;100004.03;4204885;28;20240;-70
2023/10/11 08:54:51;;;;;;;27.97;12.37;;;;;;;19.23;63.83;100008.59;4210179;28;20236;-72
2023/10/11 08:57:23;;;;;;;22.20;12.50;;;;;;;19.15;64.55;100002.28;4225731;28;20229;-71
2023/10/11 08:59:51;;;;;;;27.23;11.80;;;;;;;19.39;63.98;100004.50;4221450;28;20240;-73
2023/10/11 09:02:19;;;;;;;31.07;11.47;;;;;;;19.44;63.73;99994.56;4178259;28;21069;-71
2023/10/11 09:05:07;;;;;;;28.50;12.47;;;;;;;19.43;64.19;99990.16;4223752;28;20233;-71
2023/10/11 09:07:39;;;;;;;27.37;11.60;;;;;;;19.36;64.18;99994.00;4231250;28;20236;-73
2023/10/11 09:10:30;;;;;;;28.97;11.97;;;;;;;19.13;64.98;99992.56;4226541;28;21178;-72
2023/10/11 09:13:01;;;;;;;25.33;10.67;;;;;;;19.13;65.38;99984.34;4270019;28;22856;-70
2023/10/11 09:15:40;;;;;;;24.87;11.17;;;;;;;18.92;66.16;99999.97;4251039;28;20244;-73
2023/10/11 09:18:16;;;;;;;35.13;11.40;;;;;;;18.93;66.34;99993.44;4219084;28;22078;-72
2023/10/11 09:20:55;;;;;;;26.50;11.13;;;;;;;18.89;66.69;99986.69;4226681;28;20243;-70
2023/10/11 09:23:38;;;;;;;23.80;11.10;;;;;;;19.10;66.33;99979.28;4204039;28;20240;-73
2023/10/11 09:26:08;;;;;;;26.30;11.20;;;;;;;18.92;66.65;99978.03;4200767;28;20508;-72
2023/10/11 09:28:40;;;;;;;22.30;11.23;;;;;;;18.95;66.87;99974.03;4195593;28;20634;-75
2023/10/11 09:31:10;;;;;;;26.57;12.17;;;;;;;19.02;66.98;99974.88;4213043;28;22392;-72
2023/10/11 09:33:50;;;;;;;22.03;11.37;;;;;;;19.15;66.27;99957.50;4216150;28;20244;-74
2023/10/11 09:36:22;;;;;;;31.47;11.27;;;;;;;19.20;66.45;99967.84;4214755;28;20323;-72
2023/10/11 09:38:54;;;;;;;22.27;10.10;;;;;;;19.10;66.70;99957.31;4226950;28;21160;-73
2023/10/11 09:41:27;;;;;;;25.90;9.53;;;;;;;19.06;66.73;99967.88;4216291;28;20241;-73
2023/10/11 09:43:59;;;;;;;30.10;10.57;;;;;;;19.33;66.32;99965.06;4228431;28;21801;-72
2023/10/11 09:46:30;;;;;;;21.47;9.70;;;;;;;19.54;65.48;99963.09;4232117;28;20272;-72
2023/10/11 09:48:59;;;;;;;22.93;10.10;;;;;;;19.52;65.07;99954.22;4220240;28;21034;-72
2023/10/11 09:51:27;;;;;;;21.27;9.57;;;;;;;19.68;64.86;99959.22;4212517;28;22603;-73
2023/10/11 09:54:01;;;;;;;21.93;9.07;;;;;;;19.89;64.30;99955.31;4211770;28;20272;-73
2023/10/11 09:56:54;;;;;;;23.10;9.73;;;;;;;20.04;63.70;99956.91;4208388;28;23826;-73
2023/10/11 09:59:26;;;;;;;31.67;10.30;;;;;;;20.09;63.52;99963.41;4220158;28;23620;-72
2023/10/11 10:02:09;;;;;;;23.47;9.33;;;;;;;20.00;63.58;99955.66;4204263;28;20239;-73
2023/10/11 10:04:51;;;;;;;24.97;8.93;;;;;;;20.06;63.44;99936.41;4203488;28;20809;-73
2023/10/11 10:10:04;;;;;;;19.30;8.50;;;;;;;20.36;62.56;99938.50;4226979;28;20280;-70
2023/10/11 10:12:33;;;;;;;16.87;8.13;;;;;;;20.26;62.61;99928.00;4215726;28;20233;-72
2023/10/11 10:15:07;;;;;;;20.57;8.20;;;;;;;20.34;62.25;99928.78;4197386;28;20427;-71
2023/10/11 10:17:37;;;;;;;16.83;8.50;;;;;;;20.43;62.33;99924.69;4219849;28;21030;-71
2023/10/11 10:20:33;;;;;;;28.17;8.67;;;;;;;20.30;62.11;99913.78;4205048;28;20549;-72
2023/10/11 10:23:14;;;;;;;27.87;8.93;;;;;;;20.17;62.75;99920.22;4206003;28;20407;-70
2023/10/11 10:25:47;;;;;;;20.37;8.47;;;;;;;20.10;63.16;99915.63;4212966;28;20244;-70
2023/10/11 10:28:32;;;;;;;18.13;8.13;;;;;;;20.13;63.00;99908.03;4204438;28;22301;-69
2023/10/11 10:31:09;;;;;;;18.50;8.00;;;;;;;20.37;62.43;99900.84;4206997;28;20233;-71
2023/10/11 10:33:37;;;;;;;26.03;8.43;;;;;;;20.05;62.96;99898.16;4205997;28;20238;-71
2023/10/11 10:36:20;;;;;;;20.90;7.87;;;;;;;20.24;62.88;99908.13;4218737;28;20263;-71
2023/10/11 10:39:24;;;;;;;21.63;7.90;;;;;;;20.37;62.49;99903.59;4195649;28;21757;-72
2023/10/11 10:42:12;;;;;;;24.27;8.13;;;;;;;20.27;62.33;99890.34;4204080;28;21152;-71
2023/10/11 10:44:49;;;;;;;33.60;9.20;;;;;;;20.47;62.27;99887.44;4205749;28;23580;-70
2023/10/11 10:47:28;;;;;;;16.77;7.57;;;;;;;20.51;61.87;99888.63;4201865;28;20237;-72
2023/10/11 10:49:56;;;;;;;16.37;7.23;;;;;;;20.62;61.13;99888.97;4234340;28;20286;-72
2023/10/11 10:52:26;;;;;;;22.13;7.43;;;;;;;20.70;60.63;99877.69;4213533;28;20559;-71
2023/10/11 10:55:03;;;;;;;16.67;7.33;;;;;;;20.80;60.22;99879.91;4199078;28;20376;-74
2023/10/11 10:57:36;;;;;;;25.97;7.10;;;;;;;20.70;60.39;99885.94;4208554;28;22779;-73
2023/10/11 11:00:07;;;;;;;20.33;7.13;;;;;;;20.52;60.95;99889.50;4240068;28;20243;-71
2023/10/11 11:02:37;;;;;;;20.70;6.60;;;;;;;20.49;60.79;99888.03;4224353;28;20342;-72
2023/10/11 11:05:15;;;;;;;13.67;7.17;;;;;;;20.51;60.76;99885.06;4198735;28;20237;-70
2023/10/11 11:07:49;;;;;;;22.53;6.97;;;;;;;20.47;60.67;99890.19;4202511;28;21340;-73
2023/10/11 11:10:21;;;;;;;22.07;6.73;;;;;;;20.50;60.90;99881.50;4244583;28;20232;-72
2023/10/11 11:12:51;;;;;;;26.67;6.70;;;;;;;20.62;61.12;99892.53;4203616;28;21022;-69
2023/10/11 11:15:21;;;;;;;19.03;7.10;;;;;;;20.70;61.10;99884.00;4205435;28;23647;-66
2023/10/11 11:17:50;;;;;;;13.97;6.47;;;;;;;20.69;60.80;99876.00;4202892;28;24166;-72
2023/10/11 11:20:28;;;;;;;15.97;6.33;;;;;;;20.71;60.88;99876.59;4220820;28;21428;-72
2023/10/11 11:22:56;;;;;;;15.70;6.43;;;;;;;20.57;60.67;99868.50;4212317;28;20244;-69
2023/10/11 11:25:27;;;;;;;23.13;6.90;;;;;;;20.51;60.80;99861.16;4204991;28;20236;-68
2023/10/11 11:28:24;;;;;;;16.67;5.70;;;;;;;20.65;61.01;99855.53;4209282;28;20519;-69
2023/10/11 11:30:51;;;;;;;25.57;7.40;;;;;;;20.72;60.63;99859.91;4233298;28;20241;-72
2023/10/11 11:33:28;;;;;;;21.40;6.57;;;;;;;20.80;60.28;99849.66;4219553;28;20683;-70
2023/10/11 11:35:58;;;;;;;21.53;6.43;;;;;;;20.78;60.13;99854.53;4229755;28;22127;-69
2023/10/11 11:38:29;;;;;;;20.50;6.57;;;;;;;20.69;59.93;99843.84;4216417;28;22095;-70
2023/10/11 11:41:04;;;;;;;18.93;6.00;;;;;;;20.74;60.10;99855.03;4195552;28;20526;-69
2023/10/11 11:43:46;;;;;;;16.73;6.33;;;;;;;20.80;59.74;99844.16;4208964;28;20232;-69
2023/10/11 11:46:15;;;;;;;19.03;6.60;;;;;;;20.80;59.94;99846.91;4201136;28;20248;-67
2023/10/11 11:48:42;;;;;;;21.17;6.27;;;;;;;20.76;60.52;99849.28;4195523;28;20225;-69
2023/10/11 11:51:13;;;;;;;31.07;6.40;;;;;;;20.91;59.65;99835.16;4207214;28;20232;-68
2023/10/11 11:53:43;;;;;;;28.00;7.27;;;;;;;20.82;59.71;99837.34;4202158;28;20269;-67
2023/10/11 11:56:11;;;;;;;23.23;6.10;;;;;;;20.94;59.70;99833.84;4194378;28;20252;-69
2023/10/11 11:58:45;;;;;;;16.43;5.87;;;;;;;20.89;59.82;99823.53;4203989;28;20232;-68
2023/10/11 12:01:16;;;;;;;20.57;6.07;;;;;;;20.96;60.02;99834.47;4203594;28;20259;-70
2023/10/11 12:03:52;;;;;;;13.10;6.20;;;;;;;21.04;59.66;99834.13;4203842;28;20239;-65
2023/10/11 12:06:22;;;;;;;15.07;5.93;;;;;;;21.00;59.66;99835.66;4196718;28;20337;-69
2023/10/11 12:08:57;;;;;;;16.07;6.70;;;;;;;21.11;59.35;99832.13;4208579;28;20234;-68
2023/10/11 12:11:30;;;;;;;15.40;6.63;;;;;;;21.23;58.96;99831.34;4187256;28;20280;-68
2023/10/11 12:14:00;;;;;;;19.73;7.57;;;;;;;21.24;59.05;99833.03;4197328;28;20229;-69
2023/10/11 12:16:29;;;;;;;18.57;7.70;;;;;;;21.39;58.33;99825.19;4197793;28;20440;-70
2023/10/11 12:18:59;;;;;;;14.30;5.83;;;;;;;21.40;58.14;99829.63;4202146;28;20240;-69
2023/10/11 12:21:27;;;;;;;21.73;7.60;;;;;;;21.45;58.14;99827.00;4201649;28;20634;-70
2023/10/11 12:23:56;;;;;;;19.80;8.30;;;;;;;21.49;58.00;99830.97;4198820;28;23609;-70
2023/10/11 12:26:26;;;;;;;29.20;9.27;;;;;;;21.44;57.78;99824.50;4204980;28;20233;-73
2023/10/11 12:28:54;;;;;;;22.67;7.97;;;;;;;21.42;57.84;99807.38;4199465;28;21134;-73
2023/10/11 12:31:21;;;;;;;31.07;7.87;;;;;;;21.40;57.86;99807.59;4204632;28;20240;-71
2023/10/11 12:33:48;;;;;;;22.10;6.33;;;;;;;21.37;57.80;99810.81;4216344;28;25560;-71
2023/10/11 12:36:19;;;;;;;20.33;5.70;;;;;;;21.40;57.38;99807.59;4209972;28;21986;-73